Latest Weather Observations for Hobart

IDT60801

Issued at 11:02 am EDT Thursday 19 October 2017 (issued every 30 minutes, with the page automatically refreshed every 10 minutes)

About weather observations | Map of weather stations | Latest weather observations for TAS | Other Formats
Station Details ID: 094029 Name: HOBART (ELLERSLIE ROAD) Lat: -42.89 Lon: 147.33 Height: 50.5 m
Data from the previous 72 hours. | See also: Recent months at Hobart
Date/Time
EDT
Temp
°C
App
Temp
°C
Dew
Point
°C
Rel
Hum
%
Delta-T
°C
Wind Press
QNH
hPa
Press
MSL
hPa
Rain since
9am
mm
Dir  Spd
km/h
Gust
km/h
Spd
kts
Gust
kts
19/11:00am 17.2 15.1 13.5 79 2.1 NW 17 24 9 13 1009.7 1009.8 2.2
19/10:30am 17.6 14.8 13.1 75 2.5 NW 20 28 11 15 1010.0 1010.1 1.4
19/10:00am 19.1 15.4 12.6 66 3.7 NW 24 33 13 18 1010.4 1010.4 0.2
19/09:37am 21.3 18.0 11.6 54 5.4 WNW 20 37 11 20 1010.2 1010.3 0.0
19/09:30am 20.8 18.3 8.1 44 6.6 W 11 17 6 9 1010.2 1010.3 0.0
19/09:00am 19.8 18.1 8.2 47 6.0 S 7 9 4 5 1009.5 1009.6 0.0
19/08:30am 19.8 19.1 8.5 48 5.9 WSW 2 6 1 3 1009.6 1009.7 0.0
19/08:00am 19.4 17.5 7.5 46 6.1 SW 7 13 4 7 1009.7 1009.8 0.0
19/07:30am 17.8 16.6 9.4 58 4.4 SW 6 9 3 5 1009.5 1009.6 0.0
19/07:00am 17.9 16.5 8.7 55 4.8 NNE 6 9 3 5 1010.1 1010.2 0.0
19/06:30am 17.6 15.7 9.2 58 4.4 NW 9 11 5 6 1010.4 1010.4 0.0
19/06:00am 18.1 16.5 8.9 55 4.8 NNW 7 9 4 5 1010.4 1010.4 0.0
19/05:30am 18.7 16.7 8.7 52 5.2 N 9 11 5 6 1010.7 1010.7 0.0
19/05:00am 19.1 16.3 8.4 50 5.6 NW 13 19 7 10 1011.2 1011.2 0.0
19/04:30am 19.4 17.7 8.4 49 5.7 NE 7 11 4 6 1011.7 1011.7 0.0
19/04:00am 19.5 18.3 8.2 48 5.9 N 4 9 2 5 1012.0 1012.0 0.0
19/03:30am 20.3 17.7 7.7 44 6.5 NW 11 13 6 7 1012.4 1012.4 0.0
19/03:00am 20.7 17.7 7.7 43 6.7 NW 13 15 7 8 1012.7 1012.7 0.0
19/02:30am 20.4 17.0 7.7 44 6.6 NW 15 19 8 10 1013.1 1013.1 0.0
19/02:00am 20.7 17.7 7.7 43 6.7 NW 13 17 7 9 1013.4 1013.4 0.0
19/01:30am 21.3 17.9 7.5 41 7.1 NW 15 20 8 11 1014.0 1014.0 0.0
19/01:00am 22.6 18.1 6.8 36 8.1 NNW 20 33 11 18 1014.1 1014.1 0.0
19/12:30am 22.6 18.1 6.8 36 8.1 NNW 20 28 11 15 1014.6 1014.6 0.0
19/12:00am 22.9 18.0 7.1 36 8.2 NNW 22 30 12 16 1014.7 1014.7 0.0
 
Date/Time
EDT
Temp
°C
App
Temp
°C
Dew
Point
°C
Rel
Hum
%
Delta-T
°C
Wind Press
QNH
hPa
Press
MSL
hPa
Rain since
9am
mm
Dir  Spd
km/h
Gust
km/h
Spd
kts
Gust
kts
18/11:30pm 22.3 18.9 7.7 39 7.6 NW 15 20 8 11 1015.0 1015.0 0.0
18/11:00pm 22.7 18.4 6.9 36 8.1 WNW 19 26 10 14 1015.1 1015.1 0.0
18/10:30pm 23.7 18.8 6.9 34 8.7 NW 22 33 12 18 1015.0 1015.0 0.0
18/10:00pm 23.8 20.3 7.0 34 8.7 NW 15 22 8 12 1015.5 1015.5 0.0
18/09:30pm 24.8 20.3 7.0 32 9.3 NW 20 32 11 17 1015.7 1015.7 0.0
18/09:00pm 25.3 20.0 7.0 31 9.6 NW 24 35 13 19 1015.5 1015.5 0.0
18/08:30pm 25.6 21.6 6.8 30 9.9 NW 17 24 9 13 1015.2 1015.2 0.0
18/08:00pm 25.1 21.8 6.3 30 9.7 WNW 13 19 7 10 1014.8 1014.8 0.0
18/07:30pm 26.1 22.8 6.2 28 10.3 WNW 13 20 7 11 1014.4 1014.4 0.0
18/07:00pm 27.5 23.3 5.7 25 11.3 NNW 17 28 9 15 1014.1 1014.1 0.0
18/06:30pm 28.2 23.5 5.1 23 11.9 NNW 19 30 10 16 1013.9 1013.9 0.0
18/06:00pm 28.8 24.4 5.0 22 12.3 N 17 24 9 13 1013.9 1013.9 0.0
18/05:30pm 28.4 25.8 5.9 24 11.8 NE 9 13 5 7 1014.0 1014.0 0.0
18/05:00pm 28.8 26.5 7.4 26 11.5 N 9 15 5 8 1014.3 1014.3 0.0
18/04:30pm 28.1 24.1 8.4 29 10.8 SE 19 26 10 14 1014.7 1014.7 0.0
18/04:00pm 27.1 23.8 9.5 33 9.7 SE 17 20 9 11 1015.3 1015.3 0.0
18/03:30pm 25.8 21.7 8.8 34 9.2 SE 20 28 11 15 1015.7 1015.7 0.0
18/03:00pm 26.6 24.4 9.5 34 9.4 SSE 11 22 6 12 1016.3 1016.3 0.0
18/02:30pm 30.9 26.8 4.6 19 13.7 NW 15 28 8 15 1016.6 1016.6 0.0
18/02:00pm 30.3 27.1 4.9 20 13.2 NW 11 19 6 10 1017.4 1017.4 0.0
18/01:30pm 30.9 27.1 6.0 21 13.3 NNW 15 26 8 14 1017.9 1017.9 0.0
18/01:00pm 29.9 27.6 8.9 27 11.7 NW 11 19 6 10 1018.4 1018.4 0.0
18/12:30pm 29.0 24.8 7.6 26 11.6 NNW 19 26 10 14 1018.9 1018.9 0.0
18/12:00pm 28.4 23.5 7.1 26 11.4 NW 22 33 12 18 1019.5 1019.5 0.0
18/11:30am 27.2 22.0 7.1 28 10.7 NNW 24 33 13 18 1019.7 1019.7 0.0
18/11:00am 25.4 19.3 6.6 30 9.8 NW 28 39 15 21 1020.1 1020.1 0.0
18/10:30am 24.6 19.2 6.4 31 9.4 NNW 24 35 13 19 1020.4 1020.4 0.0
18/10:00am 22.4 18.3 8.5 41 7.3 NNW 20 28 11 15 1020.8 1020.8 0.0
18/09:30am 21.1 18.0 8.7 45 6.5 NNW 15 24 8 13 1021.1 1021.1 0.0
18/09:00am 19.2 15.6 9.9 55 5.0 NW 19 24 10 13 1021.3 1021.3 0.0
18/08:30am 17.5 13.5 9.2 58 4.3 NW 20 28 11 15 1021.2 1021.2 0.0
18/08:00am 16.7 14.0 8.9 60 4.0 NNW 13 20 7 11 1021.3 1021.3 0.0
18/07:30am 16.9 14.5 8.8 59 4.2 NW 11 17 6 9 1021.2 1021.2 0.0
18/07:00am 16.4 13.3 8.9 61 3.9 NW 15 19 8 10 1020.9 1020.9 0.0
18/06:30am 15.8 11.8 9.0 64 3.5 NNW 20 32 11 17 1020.7 1020.7 0.0
18/06:00am 15.8 13.8 8.8 63 3.6 NW 9 22 5 12 1020.3 1020.3 0.0
18/05:30am 16.1 11.4 9.1 63 3.6 NW 24 37 13 20 1019.7 1019.7 0.0
18/05:00am 16.6 11.9 9.1 61 3.9 NW 24 37 13 20 1019.6 1019.6 0.0
18/04:30am 17.2 12.3 8.6 57 4.4 NW 24 35 13 19 1019.3 1019.3 0.0
18/04:00am 17.3 12.2 9.2 59 4.2 NW 26 37 14 20 1019.0 1019.0 0.0
18/03:30am 17.1 12.2 9.8 62 3.8 NNW 26 35 14 19 1018.9 1018.9 0.0
18/03:00am 16.8 11.5 10.0 64 3.6 NW 28 41 15 22 1019.0 1019.0 0.0
18/02:30am 16.7 11.8 9.9 64 3.6 NW 26 35 14 19 1019.0 1019.0 0.0
18/02:00am 17.3 13.6 10.0 62 3.9 NW 20 28 11 15 1019.5 1019.5 0.0
18/01:30am 18.5 15.3 9.8 57 4.6 NW 17 22 9 12 1019.9 1019.9 0.0
18/01:00am 17.9 15.3 9.5 58 4.4 NNW 13 20 7 11 1019.9 1019.9 0.0
18/12:30am 18.3 15.0 9.4 56 4.7 NW 17 22 9 12 1020.1 1020.1 0.0
18/12:00am 16.2 14.1 9.6 65 3.4 NW 11 15 6 8 1020.5 1020.5 0.0
 
Date/Time
EDT
Temp
°C
App
Temp
°C
Dew
Point
°C
Rel
Hum
%
Delta-T
°C
Wind Press
QNH
hPa
Press
MSL
hPa
Rain since
9am
mm
Dir  Spd
km/h
Gust
km/h
Spd
kts
Gust
kts
17/11:30pm 16.6 15.5 10.0 65 3.5 NNW 6 7 3 4 1021.0 1021.0 0.0
17/11:00pm 16.8 15.6 9.7 63 3.7 NNW 6 9 3 5 1021.5 1021.5 0.0
17/10:30pm 17.0 15.8 9.4 61 4.0 WNW 6 9 3 5 1021.8 1021.8 0.0
17/10:00pm 17.5 16.2 9.2 58 4.3 WNW 6 7 3 4 1021.8 1021.8 0.0
17/09:30pm 18.5 16.9 8.2 51 5.3 SW 6 9 3 5 1021.9 1021.9 0.0
17/09:00pm 18.9 16.8 8.3 50 5.5 WSW 9 13 5 7 1021.8 1021.8 0.0
17/08:30pm 19.8 17.8 8.5 48 5.9 WSW 9 11 5 6 1021.6 1021.6 0.0
17/08:00pm 20.3 18.7 8.9 48 6.0 SW 7 11 4 6 1021.3 1021.3 0.0
17/07:30pm 21.2 19.3 9.1 46 6.4 SSE 9 13 5 7 1021.0 1021.0 0.0
17/07:00pm 21.9 20.0 9.1 44 6.8 SSE 9 11 5 6 1020.8 1020.8 0.0
17/06:30pm 22.8 20.9 8.9 41 7.4 SSE 9 13 5 7 1020.7 1020.7 0.0
17/06:00pm 23.6 20.8 8.5 38 8.0 SSE 13 19 7 10 1020.5 1020.5 0.0
17/05:30pm 23.9 21.6 9.1 39 8.0 SE 11 15 6 8 1020.5 1020.5 0.0
17/05:00pm 23.4 19.9 8.7 39 7.8 ESE 17 20 9 11 1020.5 1020.5 0.0
17/04:30pm 25.0 20.8 8.1 34 9.0 ESE 20 26 11 14 1020.4 1020.4 0.0
17/04:00pm 25.2 21.1 7.8 33 9.2 ESE 19 24 10 13 1020.3 1020.3 0.0
17/03:30pm 27.7 24.9 7.0 27 11.0 NNW 11 19 6 10 1020.3 1020.3 0.0
17/03:00pm 27.8 23.3 6.0 25 11.4 NW 19 28 10 15 1020.6 1020.6 0.0
17/02:30pm 26.9 21.3 5.2 25 11.1 NW 24 32 13 17 1020.7 1020.7 0.0
17/02:00pm 26.9 21.4 5.8 26 10.9 NNW 24 39 13 21 1020.9 1020.9 0.0
17/01:30pm 27.2 22.0 5.5 25 11.2 NW 22 35 12 19 1020.9 1020.9 0.0
17/01:00pm 25.4 21.7 8.0 33 9.3 NNE 17 24 9 13 1021.4 1021.4 0.0
17/12:30pm 25.0 20.8 7.6 33 9.2 NW 19 24 10 13 1021.7 1021.7 0.0
17/12:00pm 22.7 19.2 8.8 41 7.4 NW 17 22 9 12 1022.2 1022.2 0.0
17/11:30am 22.3 18.1 8.4 41 7.4 NW 20 28 11 15 1022.5 1022.5 0.0
17/11:00am 21.2 17.3 8.5 44 6.7 NW 19 26 10 14 1022.8 1022.8 0.0
17/10:30am 20.1 15.8 7.8 45 6.3 NNW 20 28 11 15 1023.0 1023.0 0.0
17/10:00am 18.8 14.9 8.7 52 5.2 NNW 19 28 10 15 1023.0 1023.0 0.0
17/09:30am 18.7 16.8 9.2 54 5.0 NNW 9 17 5 9 1022.9 1022.9 0.0
17/09:00am 16.3 13.4 8.3 59 4.1 NW 13 20 7 11 1022.7 1022.7 0.0
17/08:30am 15.4 11.2 8.4 63 3.5 NW 20 28 11 15 1022.7 1022.7 0.0
17/08:00am 14.5 10.9 8.2 66 3.1 NW 17 24 9 13 1022.6 1022.6 0.0
17/07:30am 13.6 9.4 8.2 70 2.7 NW 20 28 11 15 1022.2 1022.2 0.0
17/07:00am 13.8 12.1 8.2 69 2.8 W 7 13 4 7 1022.0 1022.0 0.0
17/06:30am 12.9 8.0 8.4 74 2.2 NW 24 32 13 17 1021.4 1021.4 0.0
17/06:00am 12.4 6.6 8.1 75 2.1 NW 28 37 15 20 1021.3 1021.3 0.0
17/05:30am 11.7 7.4 8.0 78 1.8 NW 20 28 11 15 1021.3 1021.3 0.0
17/05:00am 11.9 7.8 7.8 76 2.0 NW 19 28 10 15 1021.4 1021.4 0.0
17/04:30am 12.0 9.0 7.7 75 2.1 WNW 13 20 7 11 1021.5 1021.5 0.0
17/04:00am 12.1 9.1 7.6 74 2.2 NW 13 20 7 11 1021.6 1021.6 0.0
17/03:30am 12.2 9.2 7.5 73 2.3 NW 13 17 7 9 1021.8 1021.8 0.0
17/03:00am 12.1 9.8 7.6 74 2.2 WNW 9 15 5 8 1021.9 1021.9 0.0
17/02:30am 11.5 9.2 7.6 77 1.9 WNW 9 15 5 8 1021.9 1021.9 0.0
17/02:00am 11.2 9.5 7.5 78 1.8 WNW 6 11 3 6 1022.3 1022.3 0.0
17/01:30am 11.4 9.5 7.5 77 1.9 W 7 9 4 5 1022.9 1022.9 0.0
17/01:00am 11.8 9.9 7.5 75 2.1 WSW 7 11 4 6 1023.2 1023.2 0.0
17/12:30am 12.1 10.4 7.6 74 2.2 WNW 6 6 3 3 1023.3 1023.3 0.0
17/12:00am 12.6 11.0 7.9 73 2.3 WNW 6 7 3 4 1023.6 1023.6 0.0
 
Date/Time
EDT
Temp
°C
App
Temp
°C
Dew
Point
°C
Rel
Hum
%
Delta-T
°C
Wind Press
QNH
hPa
Press
MSL
hPa
Rain since
9am
mm
Dir  Spd
km/h
Gust
km/h
Spd
kts
Gust
kts
16/11:30pm 13.1 12.7 8.2 72 2.4 CALM 0 0 0 0 1023.7 1023.7 0.0
16/11:00pm 13.5 13.1 8.1 70 2.7 CALM 0 0 0 0 1024.1 1024.1 0.0
16/10:30pm 14.0 13.3 8.6 70 2.7 E 2 9 1 5 1024.2 1024.2 0.0
16/10:00pm 14.6 13.7 9.2 70 2.8 N 4 7 2 4 1024.5 1024.6 0.0
16/09:30pm 15.5 13.0 6.5 55 4.4 SW 9 15 5 8 1024.4 1024.5 0.0
16/09:00pm 15.8 13.0 7.1 56 4.3 SSW 11 15 6 8 1024.5 1024.6 0.0
16/08:30pm 15.8 12.6 6.8 55 4.4 SSW 13 17 7 9 1024.3 1024.3 0.0
16/08:00pm 16.3 13.9 8.5 60 4.0 SSW 11 19 6 10 1024.1 1024.1 0.0
16/07:30pm 17.1 14.5 9.5 61 4.0 S 13 20 7 11 1023.7 1023.7 0.0
16/07:00pm 17.9 15.2 9.0 56 4.6 S 13 22 7 12 1023.5 1023.5 0.0
16/06:30pm 18.1 14.4 7.8 51 5.2 SE 17 24 9 13 1023.2 1023.2 0.0
16/06:00pm 18.5 15.2 7.9 50 5.4 SE 15 26 8 14 1023.1 1023.1 0.0
16/05:30pm 19.7 17.4 9.0 50 5.6 SE 11 20 6 11 1022.9 1022.9 0.0
16/05:00pm 20.0 16.9 8.7 48 5.9 ESE 15 20 8 11 1022.8 1022.8 0.0
16/04:30pm 18.5 14.3 9.6 56 4.7 ESE 22 28 12 15 1022.6 1022.6 0.0
16/04:00pm 18.9 15.0 9.4 54 5.0 E 20 26 11 14 1022.4 1022.4 0.0
16/03:30pm 19.6 16.4 10.0 54 5.2 ESE 17 24 9 13 1022.6 1022.6 0.0
16/03:00pm 22.6 19.3 9.7 44 7.0 ESE 17 24 9 13 1022.7 1022.7 0.0
16/02:30pm 23.0 20.4 10.8 46 6.8 SE 15 20 8 11 1022.9 1022.9 0.0
16/02:00pm 22.0 18.8 9.9 46 6.5 SE 17 22 9 12 1023.3 1023.3 0.0
16/01:30pm 21.7 18.6 8.9 44 6.8 ESE 15 19 8 10 1023.4 1023.4 0.0
16/01:00pm 21.3 19.3 8.6 44 6.7 E 9 11 5 6 1023.5 1023.5 0.0
16/12:30pm 22.5 20.4 8.2 40 7.5 N 9 13 5 7 1023.7 1023.7 0.0
16/12:00pm 22.7 20.0 8.8 41 7.4 NW 13 19 7 10 1024.0 1024.0 0.0
16/11:30am 20.9 17.3 8.5 45 6.5 NW 17 22 9 12 1024.3 1024.3 0.0

Other Formats:

Comma delimited format used in spreadsheet applications
http://www.bom.gov.au/fwo/IDT60801/IDT60801.94970.axf

JavaScript Object Notation format (JSON) in row-major order
http://www.bom.gov.au/fwo/IDT60801/IDT60801.94970.json